City of Sunrise, Florida
Current Conditions -  °F | °C
As of 12:53 PM on Saturday 25 Oct 2014 (Local Time) from KFXE Reporting Station
Broken Clouds Broken Clouds  
Wind Chill: 83°   Ceiling: 4300
Heat Index: 84°   Visibility: 10mi
Dew Point: 62°   Wind: 10mph
Humidity: 49%   Direction: 10°N
Pressure: 29.91"   Gusts: NA
Location:  26.1495°N, 80.2263°W
Report Text: KFXE 251653Z AUTO 01009KT 10SM BKN043 28/17 A2991 RMK AO2 SLP130 T02830167 TSNO
Loading
Personal Weather Stations






























Interactive Weather Map
Tropical Storm Tracking
New forecast layout! Learn more

10-Day Weather Forecast

Advertisements
Track Severe Weather on mobile